sensor_id;sensor_type;location;lat;lon;timestamp;pressure;altitude;pressure_sealevel;temperature;humidity
42169;BME280;27838;43.858;25.974;2023-07-24T00:00:02;101116.41;;;27.47;49.33
42169;BME280;27838;43.858;25.974;2023-07-24T00:02:29;101119.25;;;27.44;49.74
42169;BME280;27838;43.858;25.974;2023-07-24T00:04:55;101121.19;;;27.42;49.42
42169;BME280;27838;43.858;25.974;2023-07-24T00:07:22;101122.03;;;27.42;49.96
42169;BME280;27838;43.858;25.974;2023-07-24T00:09:50;101119.47;;;27.41;50.36
42169;BME280;27838;43.858;25.974;2023-07-24T00:12:16;101118.81;;;27.37;50.54
42169;BME280;27838;43.858;25.974;2023-07-24T00:14:43;101115.75;;;27.29;50.57
42169;BME280;27838;43.858;25.974;2023-07-24T00:17:09;101114.81;;;27.16;50.96
42169;BME280;27838;43.858;25.974;2023-07-24T00:19:36;101129.13;;;27.15;50.90
42169;BME280;27838;43.858;25.974;2023-07-24T00:22:03;101113.44;;;27.08;51.56
42169;BME280;27838;43.858;25.974;2023-07-24T00:24:30;101115.38;;;27.06;51.55
42169;BME280;27838;43.858;25.974;2023-07-24T00:26:57;101116.03;;;27.10;52.14
42169;BME280;27838;43.858;25.974;2023-07-24T00:29:24;101118.78;;;27.08;53.77
42169;BME280;27838;43.858;25.974;2023-07-24T00:31:50;101107.56;;;27.03;53.97
42169;BME280;27838;43.858;25.974;2023-07-24T00:34:17;101117.09;;;27.07;53.99
42169;BME280;27838;43.858;25.974;2023-07-24T00:36:43;101121.69;;;27.05;54.27
42169;BME280;27838;43.858;25.974;2023-07-24T00:39:10;101124.06;;;27.10;54.65
42169;BME280;27838;43.858;25.974;2023-07-24T00:41:37;101110.69;;;27.10;54.54
42169;BME280;27838;43.858;25.974;2023-07-24T00:44:03;101119.28;;;27.15;54.90
42169;BME280;27838;43.858;25.974;2023-07-24T00:46:30;101112.22;;;27.14;54.97
42169;BME280;27838;43.858;25.974;2023-07-24T00:48:58;101119.94;;;27.19;55.28
42169;BME280;27838;43.858;25.974;2023-07-24T00:51:27;101119.84;;;27.20;55.34
42169;BME280;27838;43.858;25.974;2023-07-24T00:54:02;101119.75;;;27.22;55.39
42169;BME280;27838;43.858;25.974;2023-07-24T00:56:30;101121.00;;;27.16;55.51
42169;BME280;27838;43.858;25.974;2023-07-24T00:58:58;101115.00;;;27.12;55.77
42169;BME280;27838;43.858;25.974;2023-07-24T01:01:25;101106.59;;;27.04;55.76
42169;BME280;27838;43.858;25.974;2023-07-24T01:03:52;101099.81;;;26.99;55.95
42169;BME280;27838;43.858;25.974;2023-07-24T01:06:19;101106.31;;;26.94;56.29
42169;BME280;27838;43.858;25.974;2023-07-24T01:08:45;101105.84;;;26.88;56.43
42169;BME280;27838;43.858;25.974;2023-07-24T01:11:18;101102.59;;;26.83;56.39
42169;BME280;27838;43.858;25.974;2023-07-24T01:13:52;101092.34;;;26.75;56.35
42169;BME280;27838;43.858;25.974;2023-07-24T01:16:22;101104.50;;;26.81;56.20
42169;BME280;27838;43.858;25.974;2023-07-24T01:18:53;101106.31;;;26.80;56.51
42169;BME280;27838;43.858;25.974;2023-07-24T01:21:31;101105.28;;;26.83;56.56
42169;BME280;27838;43.858;25.974;2023-07-24T01:24:20;101104.13;;;26.87;56.47
42169;BME280;27838;43.858;25.974;2023-07-24T01:26:50;101099.34;;;26.92;56.40
42169;BME280;27838;43.858;25.974;2023-07-24T01:29:17;101096.66;;;26.92;56.27
42169;BME280;27838;43.858;25.974;2023-07-24T01:31:43;101099.72;;;27.00;56.03
42169;BME280;27838;43.858;25.974;2023-07-24T01:34:10;101102.09;;;27.05;56.00
42169;BME280;27838;43.858;25.974;2023-07-24T01:36:36;101107.44;;;27.05;55.96
42169;BME280;27838;43.858;25.974;2023-07-24T01:39:03;101101.31;;;27.03;56.00
42169;BME280;27838;43.858;25.974;2023-07-24T01:41:30;101111.28;;;27.01;56.33
42169;BME280;27838;43.858;25.974;2023-07-24T01:43:59;101113.09;;;27.00;56.33
42169;BME280;27838;43.858;25.974;2023-07-24T01:46:25;101110.88;;;26.92;56.69
42169;BME280;27838;43.858;25.974;2023-07-24T01:48:52;101107.94;;;26.97;56.52
42169;BME280;27838;43.858;25.974;2023-07-24T01:51:18;101121.50;;;26.94;56.90
42169;BME280;27838;43.858;25.974;2023-07-24T01:53:45;101127.16;;;26.89;57.63
42169;BME280;27838;43.858;25.974;2023-07-24T01:56:11;101119.13;;;26.89;57.54
42169;BME280;27838;43.858;25.974;2023-07-24T01:58:38;101122.75;;;26.88;57.96
42169;BME280;27838;43.858;25.974;2023-07-24T02:01:04;101120.56;;;26.81;58.33
42169;BME280;27838;43.858;25.974;2023-07-24T02:03:31;101118.16;;;26.76;58.57
42169;BME280;27838;43.858;25.974;2023-07-24T02:05:57;101124.53;;;26.73;58.76
42169;BME280;27838;43.858;25.974;2023-07-24T02:08:24;101116.06;;;26.67;58.75
42169;BME280;27838;43.858;25.974;2023-07-24T02:10:50;101121.72;;;26.61;59.11
42169;BME280;27838;43.858;25.974;2023-07-24T02:13:17;101124.25;;;26.64;59.04
42169;BME280;27838;43.858;25.974;2023-07-24T02:15:43;101120.63;;;26.65;58.76
42169;BME280;27838;43.858;25.974;2023-07-24T02:18:10;101132.28;;;26.64;58.89
42169;BME280;27838;43.858;25.974;2023-07-24T02:20:36;101126.22;;;26.60;59.32
42169;BME280;27838;43.858;25.974;2023-07-24T02:23:03;101128.91;;;26.60;59.72
42169;BME280;27838;43.858;25.974;2023-07-24T02:25:30;101128.31;;;26.55;59.52
42169;BME280;27838;43.858;25.974;2023-07-24T02:27:56;101131.09;;;26.53;59.65
42169;BME280;27838;43.858;25.974;2023-07-24T02:30:22;101135.50;;;26.54;59.63
42169;BME280;27838;43.858;25.974;2023-07-24T02:32:49;101135.09;;;26.61;59.68
42169;BME280;27838;43.858;25.974;2023-07-24T02:35:16;101143.66;;;26.67;59.46
42169;BME280;27838;43.858;25.974;2023-07-24T02:37:43;101151.28;;;26.73;59.38
42169;BME280;27838;43.858;25.974;2023-07-24T02:40:10;101150.91;;;26.80;59.40
42169;BME280;27838;43.858;25.974;2023-07-24T02:42:36;101159.78;;;26.80;59.14
42169;BME280;27838;43.858;25.974;2023-07-24T02:45:03;101153.00;;;26.74;58.55
42169;BME280;27838;43.858;25.974;2023-07-24T02:47:30;101143.06;;;26.62;59.30
42169;BME280;27838;43.858;25.974;2023-07-24T02:49:57;101146.84;;;26.58;59.22
42169;BME280;27838;43.858;25.974;2023-07-24T02:52:23;101146.34;;;26.51;59.58
42169;BME280;27838;43.858;25.974;2023-07-24T02:54:50;101145.94;;;26.43;59.55
42169;BME280;27838;43.858;25.974;2023-07-24T02:57:16;101133.81;;;26.37;59.59
42169;BME280;27838;43.858;25.974;2023-07-24T02:59:43;101135.22;;;26.29;60.18
42169;BME280;27838;43.858;25.974;2023-07-24T03:02:09;101134.81;;;26.21;60.30
42169;BME280;27838;43.858;25.974;2023-07-24T03:04:36;101130.63;;;26.16;60.52
42169;BME280;27838;43.858;25.974;2023-07-24T03:07:02;101132.31;;;26.17;60.69
42169;BME280;27838;43.858;25.974;2023-07-24T03:09:29;101129.31;;;26.24;60.59
42169;BME280;27838;43.858;25.974;2023-07-24T03:11:55;101121.75;;;26.16;60.62
42169;BME280;27838;43.858;25.974;2023-07-24T03:14:22;101132.16;;;26.21;60.52
42169;BME280;27838;43.858;25.974;2023-07-24T03:16:48;101129.88;;;26.14;60.52
42169;BME280;27838;43.858;25.974;2023-07-24T03:19:15;101132.53;;;26.14;60.71
42169;BME280;27838;43.858;25.974;2023-07-24T03:21:42;101117.81;;;26.07;60.38
42169;BME280;27838;43.858;25.974;2023-07-24T03:24:09;101124.19;;;26.05;60.42
42169;BME280;27838;43.858;25.974;2023-07-24T03:26:35;101121.59;;;26.03;60.14
42169;BME280;27838;43.858;25.974;2023-07-24T03:29:04;101123.94;;;26.09;59.89
42169;BME280;27838;43.858;25.974;2023-07-24T03:31:30;101119.09;;;26.16;59.88
42169;BME280;27838;43.858;25.974;2023-07-24T03:33:57;101117.84;;;26.22;59.60
42169;BME280;27838;43.858;25.974;2023-07-24T03:36:23;101121.69;;;26.32;58.91
42169;BME280;27838;43.858;25.974;2023-07-24T03:38:50;101112.34;;;26.39;58.72
42169;BME280;27838;43.858;25.974;2023-07-24T03:41:16;101118.28;;;26.44;58.12
42169;BME280;27838;43.858;25.974;2023-07-24T03:43:43;101109.50;;;26.42;57.76
42169;BME280;27838;43.858;25.974;2023-07-24T03:46:09;101116.16;;;26.35;57.23
42169;BME280;27838;43.858;25.974;2023-07-24T03:48:36;101107.09;;;26.37;57.09
42169;BME280;27838;43.858;25.974;2023-07-24T03:51:03;101109.88;;;26.36;56.69
42169;BME280;27838;43.858;25.974;2023-07-24T03:53:29;101114.34;;;26.35;56.49
42169;BME280;27838;43.858;25.974;2023-07-24T03:55:56;101118.81;;;26.35;56.44
42169;BME280;27838;43.858;25.974;2023-07-24T03:58:22;101124.00;;;26.38;56.72
42169;BME280;27838;43.858;25.974;2023-07-24T04:00:49;101114.84;;;26.42;56.00
42169;BME280;27838;43.858;25.974;2023-07-24T04:03:15;101115.31;;;26.49;55.83
42169;BME280;27838;43.858;25.974;2023-07-24T04:05:42;101111.78;;;26.48;55.83
42169;BME280;27838;43.858;25.974;2023-07-24T04:08:09;101106.28;;;26.51;55.97
42169;BME280;27838;43.858;25.974;2023-07-24T04:10:35;101105.19;;;26.54;55.82
42169;BME280;27838;43.858;25.974;2023-07-24T04:13:02;101101.59;;;26.55;55.89
42169;BME280;27838;43.858;25.974;2023-07-24T04:15:28;101099.69;;;26.57;55.63
42169;BME280;27838;43.858;25.974;2023-07-24T04:17:55;101106.66;;;26.60;55.49
42169;BME280;27838;43.858;25.974;2023-07-24T04:20:21;101110.63;;;26.68;55.14
42169;BME280;27838;43.858;25.974;2023-07-24T04:22:48;101103.16;;;26.73;55.06
42169;BME280;27838;43.858;25.974;2023-07-24T04:25:14;101104.59;;;26.79;55.17
42169;BME280;27838;43.858;25.974;2023-07-24T04:27:41;101103.25;;;26.86;54.87
42169;BME280;27838;43.858;25.974;2023-07-24T04:30:08;101115.28;;;26.93;54.50
42169;BME280;27838;43.858;25.974;2023-07-24T04:32:34;101120.44;;;26.97;54.89
42169;BME280;27838;43.858;25.974;2023-07-24T04:35:01;101125.81;;;26.97;54.97
42169;BME280;27838;43.858;25.974;2023-07-24T04:37:28;101120.44;;;26.97;55.36
42169;BME280;27838;43.858;25.974;2023-07-24T04:39:54;101118.13;;;27.05;55.15
42169;BME280;27838;43.858;25.974;2023-07-24T04:42:21;101122.53;;;27.06;55.46
42169;BME280;27838;43.858;25.974;2023-07-24T04:44:47;101135.91;;;27.06;56.94
42169;BME280;27838;43.858;25.974;2023-07-24T04:47:15;101132.66;;;27.01;57.91
42169;BME280;27838;43.858;25.974;2023-07-24T04:49:42;101126.56;;;26.99;58.47
42169;BME280;27838;43.858;25.974;2023-07-24T04:52:08;101127.41;;;26.99;58.54
42169;BME280;27838;43.858;25.974;2023-07-24T04:54:35;101132.56;;;27.02;58.05
42169;BME280;27838;43.858;25.974;2023-07-24T04:57:01;101141.09;;;27.09;57.91
42169;BME280;27838;43.858;25.974;2023-07-24T04:59:28;101131.69;;;27.16;57.44
42169;BME280;27838;43.858;25.974;2023-07-24T05:01:54;101123.78;;;27.15;57.56
42169;BME280;27838;43.858;25.974;2023-07-24T05:04:21;101122.22;;;27.25;57.06
42169;BME280;27838;43.858;25.974;2023-07-24T05:06:47;101116.72;;;27.28;56.96
42169;BME280;27838;43.858;25.974;2023-07-24T05:09:14;101128.09;;;27.31;56.98
42169;BME280;27838;43.858;25.974;2023-07-24T05:11:41;101125.97;;;27.37;57.37
42169;BME280;27838;43.858;25.974;2023-07-24T05:14:09;101117.44;;;27.44;56.85
42169;BME280;27838;43.858;25.974;2023-07-24T05:16:36;101128.19;;;27.57;56.51
42169;BME280;27838;43.858;25.974;2023-07-24T05:19:02;101122.25;;;27.66;56.18
42169;BME280;27838;43.858;25.974;2023-07-24T05:21:30;101117.56;;;27.70;55.77
42169;BME280;27838;43.858;25.974;2023-07-24T05:23:56;101120.38;;;27.81;55.93
42169;BME280;27838;43.858;25.974;2023-07-24T05:26:23;101116.66;;;27.84;55.90
42169;BME280;27838;43.858;25.974;2023-07-24T05:28:49;101113.47;;;27.92;55.58
42169;BME280;27838;43.858;25.974;2023-07-24T05:31:18;101112.84;;;28.01;55.15
42169;BME280;27838;43.858;25.974;2023-07-24T05:33:44;101105.47;;;28.04;55.23
42169;BME280;27838;43.858;25.974;2023-07-24T05:36:11;101109.13;;;28.03;54.80
42169;BME280;27838;43.858;25.974;2023-07-24T05:38:37;101106.25;;;28.06;54.77
42169;BME280;27838;43.858;25.974;2023-07-24T05:41:04;101101.63;;;28.09;55.14
42169;BME280;27838;43.858;25.974;2023-07-24T05:43:31;101096.81;;;28.14;54.61
42169;BME280;27838;43.858;25.974;2023-07-24T05:45:58;101096.72;;;28.15;54.40
42169;BME280;27838;43.858;25.974;2023-07-24T05:48:24;101100.03;;;28.19;54.33
42169;BME280;27838;43.858;25.974;2023-07-24T05:50:51;101100.25;;;28.29;53.23
42169;BME280;27838;43.858;25.974;2023-07-24T05:53:18;101101.25;;;28.40;52.94
42169;BME280;27838;43.858;25.974;2023-07-24T05:55:44;101109.38;;;28.52;53.01
42169;BME280;27838;43.858;25.974;2023-07-24T05:58:11;101106.09;;;28.61;52.85
42169;BME280;27838;43.858;25.974;2023-07-24T06:00:37;101101.03;;;28.69;52.64
42169;BME280;27838;43.858;25.974;2023-07-24T06:03:04;101109.75;;;28.73;52.30
42169;BME280;27838;43.858;25.974;2023-07-24T06:05:31;101109.09;;;28.82;50.50
42169;BME280;27838;43.858;25.974;2023-07-24T06:07:57;101112.22;;;28.89;49.29
42169;BME280;27838;43.858;25.974;2023-07-24T06:10:24;101103.59;;;28.96;49.31
42169;BME280;27838;43.858;25.974;2023-07-24T06:12:50;101096.94;;;29.02;49.15
42169;BME280;27838;43.858;25.974;2023-07-24T06:15:17;101100.34;;;29.04;49.26
42169;BME280;27838;43.858;25.974;2023-07-24T06:17:43;101088.34;;;29.10;49.44
42169;BME280;27838;43.858;25.974;2023-07-24T06:20:10;101091.47;;;29.16;50.24
42169;BME280;27838;43.858;25.974;2023-07-24T06:22:36;101095.31;;;29.25;48.28
42169;BME280;27838;43.858;25.974;2023-07-24T06:25:03;101085.41;;;29.26;47.23
42169;BME280;27838;43.858;25.974;2023-07-24T06:27:30;101084.75;;;29.35;47.06
42169;BME280;27838;43.858;25.974;2023-07-24T06:29:56;101081.25;;;29.46;47.19
42169;BME280;27838;43.858;25.974;2023-07-24T06:32:23;101079.31;;;29.48;47.63
42169;BME280;27838;43.858;25.974;2023-07-24T06:34:49;101090.44;;;29.54;47.47
42169;BME280;27838;43.858;25.974;2023-07-24T06:37:16;101086.34;;;29.62;46.92
42169;BME280;27838;43.858;25.974;2023-07-24T06:39:42;101094.34;;;29.74;46.62
42169;BME280;27838;43.858;25.974;2023-07-24T06:42:09;101093.06;;;29.80;46.73
42169;BME280;27838;43.858;25.974;2023-07-24T06:44:35;101091.84;;;29.84;48.82
42169;BME280;27838;43.858;25.974;2023-07-24T06:47:02;101093.56;;;29.85;50.39
42169;BME280;27838;43.858;25.974;2023-07-24T06:49:28;101098.72;;;29.88;50.04
42169;BME280;27838;43.858;25.974;2023-07-24T06:51:55;101088.19;;;29.85;50.45
42169;BME280;27838;43.858;25.974;2023-07-24T06:54:21;101096.75;;;29.90;50.62
42169;BME280;27838;43.858;25.974;2023-07-24T06:56:48;101091.16;;;29.93;50.45
42169;BME280;27838;43.858;25.974;2023-07-24T06:59:14;101093.59;;;29.97;50.33
42169;BME280;27838;43.858;25.974;2023-07-24T07:01:41;101098.00;;;29.98;49.49
42169;BME280;27838;43.858;25.974;2023-07-24T07:04:07;101088.97;;;29.99;48.84
42169;BME280;27838;43.858;25.974;2023-07-24T07:06:34;101087.88;;;30.01;48.12
42169;BME280;27838;43.858;25.974;2023-07-24T07:09:00;101079.81;;;30.01;47.45
42169;BME280;27838;43.858;25.974;2023-07-24T07:11:27;101089.97;;;30.09;47.20
42169;BME280;27838;43.858;25.974;2023-07-24T07:13:53;101079.22;;;30.09;47.10
42169;BME280;27838;43.858;25.974;2023-07-24T07:16:20;101075.22;;;30.15;46.78
42169;BME280;27838;43.858;25.974;2023-07-24T07:18:46;101075.56;;;30.21;46.58
42169;BME280;27838;43.858;25.974;2023-07-24T07:21:13;101076.06;;;30.26;46.17
42169;BME280;27838;43.858;25.974;2023-07-24T07:23:40;101070.22;;;30.33;46.25
42169;BME280;27838;43.858;25.974;2023-07-24T07:26:06;101063.66;;;30.37;45.76
42169;BME280;27838;43.858;25.974;2023-07-24T07:28:33;101077.25;;;30.46;45.34
42169;BME280;27838;43.858;25.974;2023-07-24T07:30:59;101068.34;;;30.46;45.21
42169;BME280;27838;43.858;25.974;2023-07-24T07:33:26;101074.22;;;30.51;45.46
42169;BME280;27838;43.858;25.974;2023-07-24T07:35:53;101063.06;;;30.56;44.96
42169;BME280;27838;43.858;25.974;2023-07-24T07:38:19;101062.97;;;30.68;44.37
42169;BME280;27838;43.858;25.974;2023-07-24T07:40:48;101061.22;;;30.79;44.15
42169;BME280;27838;43.858;25.974;2023-07-24T07:43:14;101052.91;;;30.82;43.77
42169;BME280;27838;43.858;25.974;2023-07-24T07:45:41;101050.22;;;30.82;43.68
42169;BME280;27838;43.858;25.974;2023-07-24T07:48:07;101056.34;;;30.84;43.56
42169;BME280;27838;43.858;25.974;2023-07-24T07:50:34;101045.09;;;30.90;42.77
42169;BME280;27838;43.858;25.974;2023-07-24T07:53:00;101045.09;;;31.01;42.69
42169;BME280;27838;43.858;25.974;2023-07-24T07:55:27;101049.00;;;31.09;42.52
42169;BME280;27838;43.858;25.974;2023-07-24T07:57:53;101045.69;;;31.16;41.67
42169;BME280;27838;43.858;25.974;2023-07-24T08:00:20;101032.81;;;31.20;41.15
42169;BME280;27838;43.858;25.974;2023-07-24T08:02:46;101030.38;;;31.28;40.61
42169;BME280;27838;43.858;25.974;2023-07-24T08:05:13;101028.16;;;31.33;40.78
42169;BME280;27838;43.858;25.974;2023-07-24T08:07:41;101028.47;;;31.40;40.56
42169;BME280;27838;43.858;25.974;2023-07-24T08:10:07;101027.50;;;31.41;41.10
42169;BME280;27838;43.858;25.974;2023-07-24T08:12:34;101040.72;;;31.44;40.72
42169;BME280;27838;43.858;25.974;2023-07-24T08:15:01;101028.34;;;31.53;40.56
42169;BME280;27838;43.858;25.974;2023-07-24T08:17:28;101022.72;;;31.56;39.97
42169;BME280;27838;43.858;25.974;2023-07-24T08:19:54;101023.91;;;31.63;39.84
42169;BME280;27838;43.858;25.974;2023-07-24T08:22:21;101017.00;;;31.70;39.86
42169;BME280;27838;43.858;25.974;2023-07-24T08:24:48;100988.13;;;31.61;39.74
42169;BME280;27838;43.858;25.974;2023-07-24T08:27:15;101020.22;;;31.85;39.02
42169;BME280;27838;43.858;25.974;2023-07-24T08:29:42;101014.44;;;31.90;38.61
42169;BME280;27838;43.858;25.974;2023-07-24T08:32:08;101017.97;;;31.90;38.02
42169;BME280;27838;43.858;25.974;2023-07-24T08:34:35;101017.13;;;31.90;38.64
42169;BME280;27838;43.858;25.974;2023-07-24T08:37:01;101011.94;;;31.98;38.47
42169;BME280;27838;43.858;25.974;2023-07-24T08:39:28;101007.00;;;32.03;38.16
42169;BME280;27838;43.858;25.974;2023-07-24T08:41:56;101005.50;;;32.10;38.33
42169;BME280;27838;43.858;25.974;2023-07-24T08:44:22;101010.34;;;32.16;37.71
42169;BME280;27838;43.858;25.974;2023-07-24T08:46:51;101012.78;;;32.20;38.42
42169;BME280;27838;43.858;25.974;2023-07-24T08:49:18;101011.53;;;32.24;38.15
42169;BME280;27838;43.858;25.974;2023-07-24T08:51:46;101003.31;;;32.25;38.15
42169;BME280;27838;43.858;25.974;2023-07-24T08:54:13;100997.97;;;32.35;37.44
42169;BME280;27838;43.858;25.974;2023-07-24T08:56:40;101006.22;;;32.43;35.45
42169;BME280;27838;43.858;25.974;2023-07-24T08:59:12;100998.44;;;32.50;34.28
42169;BME280;27838;43.858;25.974;2023-07-24T09:01:38;101001.44;;;32.56;33.83
42169;BME280;27838;43.858;25.974;2023-07-24T09:04:05;100995.81;;;32.60;34.56
42169;BME280;27838;43.858;25.974;2023-07-24T09:06:32;100995.69;;;32.61;34.38
42169;BME280;27838;43.858;25.974;2023-07-24T09:08:58;100985.47;;;32.65;33.48
42169;BME280;27838;43.858;25.974;2023-07-24T09:11:25;100985.34;;;32.76;34.01
42169;BME280;27838;43.858;25.974;2023-07-24T09:13:51;100976.44;;;32.85;33.93
42169;BME280;27838;43.858;25.974;2023-07-24T09:16:22;100975.16;;;32.89;33.67
42169;BME280;27838;43.858;25.974;2023-07-24T09:18:50;100975.31;;;32.98;33.01
42169;BME280;27838;43.858;25.974;2023-07-24T09:21:29;100965.22;;;33.00;33.45
42169;BME280;27838;43.858;25.974;2023-07-24T09:23:57;100965.94;;;33.02;33.24
42169;BME280;27838;43.858;25.974;2023-07-24T09:26:24;100959.25;;;33.06;33.00
42169;BME280;27838;43.858;25.974;2023-07-24T09:28:54;100964.94;;;33.12;32.00
42169;BME280;27838;43.858;25.974;2023-07-24T09:31:20;100956.97;;;33.11;31.28
42169;BME280;27838;43.858;25.974;2023-07-24T09:33:47;100958.47;;;33.15;31.09
42169;BME280;27838;43.858;25.974;2023-07-24T09:36:14;100961.59;;;33.20;31.05
42169;BME280;27838;43.858;25.974;2023-07-24T09:38:41;100955.19;;;33.21;31.51
42169;BME280;27838;43.858;25.974;2023-07-24T09:41:07;100953.03;;;33.25;30.73
42169;BME280;27838;43.858;25.974;2023-07-24T09:43:34;100946.06;;;33.32;29.32
42169;BME280;27838;43.858;25.974;2023-07-24T09:46:04;100941.66;;;33.41;28.44
42169;BME280;27838;43.858;25.974;2023-07-24T09:48:31;100928.56;;;33.46;28.16
42169;BME280;27838;43.858;25.974;2023-07-24T09:50:59;100929.97;;;33.60;28.68
42169;BME280;27838;43.858;25.974;2023-07-24T09:53:33;100931.81;;;33.69;28.65
42169;BME280;27838;43.858;25.974;2023-07-24T09:56:02;100917.75;;;33.75;28.99
42169;BME280;27838;43.858;25.974;2023-07-24T09:58:32;100916.97;;;33.93;28.90
42169;BME280;27838;43.858;25.974;2023-07-24T10:01:00;100916.28;;;33.91;27.59
42169;BME280;27838;43.858;25.974;2023-07-24T10:03:28;100925.78;;;33.95;28.28
42169;BME280;27838;43.858;25.974;2023-07-24T10:05:55;100906.84;;;33.95;27.87
42169;BME280;27838;43.858;25.974;2023-07-24T10:08:22;100917.19;;;34.09;27.59
42169;BME280;27838;43.858;25.974;2023-07-24T10:10:49;100912.63;;;34.19;27.64
42169;BME280;27838;43.858;25.974;2023-07-24T10:13:20;100902.16;;;34.34;27.69
42169;BME280;27838;43.858;25.974;2023-07-24T10:15:48;100899.38;;;34.44;26.99
42169;BME280;27838;43.858;25.974;2023-07-24T10:18:16;100904.34;;;34.49;26.87
42169;BME280;27838;43.858;25.974;2023-07-24T10:20:44;100888.81;;;34.51;26.87
42169;BME280;27838;43.858;25.974;2023-07-24T10:23:11;100893.63;;;34.57;26.19
42169;BME280;27838;43.858;25.974;2023-07-24T10:25:44;100887.44;;;34.65;27.09
42169;BME280;27838;43.858;25.974;2023-07-24T10:28:12;100894.59;;;34.84;26.92
42169;BME280;27838;43.858;25.974;2023-07-24T10:30:42;100882.69;;;34.94;26.89
42169;BME280;27838;43.858;25.974;2023-07-24T10:33:11;100892.75;;;35.02;25.65
42169;BME280;27838;43.858;25.974;2023-07-24T10:35:51;100878.72;;;35.07;25.28
42169;BME280;27838;43.858;25.974;2023-07-24T10:38:17;100879.34;;;35.18;22.88
42169;BME280;27838;43.858;25.974;2023-07-24T10:40:46;100886.16;;;35.23;21.84
42169;BME280;27838;43.858;25.974;2023-07-24T10:43:17;100880.50;;;35.34;23.01
42169;BME280;27838;43.858;25.974;2023-07-24T10:45:50;100876.44;;;35.38;23.35
42169;BME280;27838;43.858;25.974;2023-07-24T10:48:18;100872.91;;;35.38;23.53
42169;BME280;27838;43.858;25.974;2023-07-24T10:50:46;100874.81;;;35.45;23.90
42169;BME280;27838;43.858;25.974;2023-07-24T10:53:16;100863.72;;;35.57;22.97
42169;BME280;27838;43.858;25.974;2023-07-24T10:55:43;100860.84;;;35.58;23.07
42169;BME280;27838;43.858;25.974;2023-07-24T10:58:11;100857.78;;;35.61;23.61
42169;BME280;27838;43.858;25.974;2023-07-24T11:00:41;100851.22;;;35.64;24.00
42169;BME280;27838;43.858;25.974;2023-07-24T11:03:11;100849.19;;;35.66;23.55
42169;BME280;27838;43.858;25.974;2023-07-24T11:05:42;100847.47;;;35.65;23.93
42169;BME280;27838;43.858;25.974;2023-07-24T11:08:13;100843.69;;;35.76;23.86
42169;BME280;27838;43.858;25.974;2023-07-24T11:10:46;100846.09;;;35.87;23.82
42169;BME280;27838;43.858;25.974;2023-07-24T11:13:14;100843.41;;;35.87;23.42
42169;BME280;27838;43.858;25.974;2023-07-24T11:15:40;100828.69;;;35.89;23.47
42169;BME280;27838;43.858;25.974;2023-07-24T11:18:07;100826.81;;;35.90;23.26
42169;BME280;27838;43.858;25.974;2023-07-24T11:20:51;100831.38;;;35.89;23.76
42169;BME280;27838;43.858;25.974;2023-07-24T11:23:18;100825.97;;;35.89;24.18
42169;BME280;27838;43.858;25.974;2023-07-24T11:25:46;100816.44;;;35.85;24.12
42169;BME280;27838;43.858;25.974;2023-07-24T11:28:14;100820.28;;;35.75;24.61
42169;BME280;27838;43.858;25.974;2023-07-24T11:30:41;100820.59;;;35.71;24.93
42169;BME280;27838;43.858;25.974;2023-07-24T11:33:10;100818.94;;;35.79;24.01
42169;BME280;27838;43.858;25.974;2023-07-24T11:35:37;100813.59;;;35.95;24.33
42169;BME280;27838;43.858;25.974;2023-07-24T11:38:05;100814.63;;;36.02;23.72
42169;BME280;27838;43.858;25.974;2023-07-24T11:40:34;100804.66;;;36.11;23.12
42169;BME280;27838;43.858;25.974;2023-07-24T11:43:03;100808.38;;;36.10;22.92
42169;BME280;27838;43.858;25.974;2023-07-24T11:45:30;100814.31;;;36.14;23.01
42169;BME280;27838;43.858;25.974;2023-07-24T11:47:57;100801.94;;;36.11;22.84
42169;BME280;27838;43.858;25.974;2023-07-24T11:50:24;100822.66;;;36.12;23.53
42169;BME280;27838;43.858;25.974;2023-07-24T11:52:51;100805.00;;;36.08;22.96
42169;BME280;27838;43.858;25.974;2023-07-24T11:55:20;100795.34;;;36.05;22.57
42169;BME280;27838;43.858;25.974;2023-07-24T11:58:00;100799.25;;;36.11;23.01
42169;BME280;27838;43.858;25.974;2023-07-24T12:00:32;100790.59;;;36.07;23.32
42169;BME280;27838;43.858;25.974;2023-07-24T12:03:00;100787.69;;;36.01;22.98
42169;BME280;27838;43.858;25.974;2023-07-24T12:05:27;100792.06;;;35.94;23.22
42169;BME280;27838;43.858;25.974;2023-07-24T12:07:54;100782.06;;;35.94;23.19
42169;BME280;27838;43.858;25.974;2023-07-24T12:10:27;100784.97;;;36.01;23.52
42169;BME280;27838;43.858;25.974;2023-07-24T12:12:57;100788.53;;;36.01;23.71
42169;BME280;27838;43.858;25.974;2023-07-24T12:15:24;100775.31;;;36.06;23.08
42169;BME280;27838;43.858;25.974;2023-07-24T12:17:52;100778.91;;;36.07;23.12
42169;BME280;27838;43.858;25.974;2023-07-24T12:20:18;100786.31;;;36.05;23.54
42169;BME280;27838;43.858;25.974;2023-07-24T12:22:45;100778.03;;;36.06;23.38
42169;BME280;27838;43.858;25.974;2023-07-24T12:25:12;100772.97;;;36.03;23.65
42169;BME280;27838;43.858;25.974;2023-07-24T12:27:38;100764.97;;;36.02;23.63
42169;BME280;27838;43.858;25.974;2023-07-24T12:30:08;100775.47;;;36.05;23.54
42169;BME280;27838;43.858;25.974;2023-07-24T12:32:35;100771.25;;;36.02;23.40
42169;BME280;27838;43.858;25.974;2023-07-24T12:35:01;100761.91;;;36.05;23.78
42169;BME280;27838;43.858;25.974;2023-07-24T12:37:28;100761.91;;;36.05;23.46
42169;BME280;27838;43.858;25.974;2023-07-24T12:39:54;100760.59;;;36.09;23.02